FJI262 NVVV-NFFN
Flight info
| Callsign | FJI262 |
|---|---|
| Flight time | 1h 31m |
| Altitude | 37000 |
| Route | EMTEN1 KUSIN DCT BIROP B598 BEGIT |
| Aircraft | A320/M-SDE3FGHIRWY/LB1 |
Departure
| Time | 2026-04-24 18:56 |
|---|---|
| Airport | Bauerfield International Airport (NVVV) |
Arrival
| Time | 2026-04-24 20:28 |
|---|---|
| Airport | Nadi International Airport (NFFN) |
| Time | Latitude | Longitude | Altitude | Speed | Heading |
|---|---|---|---|---|---|
| 2026-04-24 18:54 | -17.69329 | 168.30795 | 47 ft | 0 kts | 120° |
| 2026-04-24 18:55 | -17.69330 | 168.30798 | 47 ft | 6 kts | 120° |
| 2026-04-24 18:56 | -17.69481 | 168.31098 | 52 ft | 84 kts | 117° |
| 2026-04-24 18:56 | -17.69853 | 168.31833 | 53 ft | 141 kts | 117° |
| 2026-04-24 18:56 | -17.70339 | 168.32848 | 437 ft | 158 kts | 114° |
| 2026-04-24 18:56 | -17.70852 | 168.33830 | 1297 ft | 151 kts | 124° |
| 2026-04-24 18:57 | -17.71580 | 168.34601 | 2049 ft | 153 kts | 142° |
| 2026-04-24 18:57 | -17.72622 | 168.35123 | 2312 ft | 176 kts | 159° |
| 2026-04-24 18:57 | -17.73771 | 168.35379 | 3129 ft | 168 kts | 169° |
| 2026-04-24 18:57 | -17.74958 | 168.35415 | 3683 ft | 172 kts | 172° |
| 2026-04-24 18:58 | -17.76144 | 168.35602 | 4260 ft | 172 kts | 162° |
| 2026-04-24 18:58 | -17.77275 | 168.36007 | 4765 ft | 180 kts | 152° |
| 2026-04-24 18:58 | -17.78429 | 168.36687 | 5034 ft | 201 kts | 142° |
| 2026-04-24 18:58 | -17.79544 | 168.37704 | 5358 ft | 224 kts | 131° |
| 2026-04-24 18:59 | -17.80521 | 168.39083 | 5762 ft | 248 kts | 120° |
| 2026-04-24 18:59 | -17.81585 | 168.40601 | 6275 ft | 267 kts | 133° |
| 2026-04-24 18:59 | -17.82913 | 168.41981 | 7087 ft | 271 kts | 136° |
| 2026-04-24 18:59 | -17.84338 | 168.43323 | 7833 ft | 278 kts | 140° |
| 2026-04-24 19:00 | -17.85902 | 168.44546 | 8607 ft | 285 kts | 149° |
| 2026-04-24 19:00 | -17.87758 | 168.45352 | 9327 ft | 292 kts | 161° |
| 2026-04-24 19:00 | -17.89710 | 168.46027 | 10065 ft | 298 kts | 162° |
| 2026-04-24 19:00 | -17.91753 | 168.46730 | 10398 ft | 321 kts | 162° |
| 2026-04-24 19:01 | -17.93892 | 168.47595 | 10821 ft | 334 kts | 154° |
| 2026-04-24 19:01 | -17.95964 | 168.48732 | 11543 ft | 340 kts | 151° |
| 2026-04-24 19:01 | -17.97854 | 168.50231 | 12263 ft | 344 kts | 135° |
| 2026-04-24 19:01 | -17.99509 | 168.52073 | 12923 ft | 350 kts | 132° |
| 2026-04-24 19:02 | -18.00600 | 168.53328 | 13386 ft | 353 kts | 132° |
| 2026-04-24 19:02 | -18.02789 | 168.55944 | 14262 ft | 358 kts | 124° |
| 2026-04-24 19:02 | -18.03893 | 168.58287 | 14848 ft | 361 kts | 104° |
| 2026-04-24 19:02 | -18.04197 | 168.60889 | 15430 ft | 360 kts | 84° |
| 2026-04-24 19:03 | -18.03828 | 168.63492 | 16022 ft | 362 kts | 76° |
| 2026-04-24 19:03 | -18.03370 | 168.66106 | 16616 ft | 366 kts | 76° |
| 2026-04-24 19:03 | -18.02905 | 168.68745 | 17193 ft | 370 kts | 76° |
| 2026-04-24 19:03 | -18.02435 | 168.71414 | 17789 ft | 373 kts | 76° |
| 2026-04-24 19:04 | -18.01972 | 168.74067 | 18369 ft | 376 kts | 76° |
| 2026-04-24 19:04 | -18.01499 | 168.76779 | 18861 ft | 379 kts | 76° |
| 2026-04-24 19:04 | -18.01020 | 168.79513 | 19355 ft | 383 kts | 76° |
| 2026-04-24 19:04 | -18.00534 | 168.82280 | 19848 ft | 387 kts | 76° |
| 2026-04-24 19:05 | -18.00043 | 168.85072 | 20336 ft | 390 kts | 76° |
| 2026-04-24 19:05 | -17.99547 | 168.87884 | 20820 ft | 394 kts | 76° |
| 2026-04-24 19:05 | -17.99043 | 168.90728 | 21297 ft | 397 kts | 76° |
| 2026-04-24 19:05 | -17.98537 | 168.93593 | 21772 ft | 401 kts | 76° |
| 2026-04-24 19:06 | -17.98027 | 168.96483 | 22238 ft | 404 kts | 76° |
| 2026-04-24 19:06 | -17.97512 | 168.99404 | 22698 ft | 408 kts | 76° |
| 2026-04-24 19:06 | -17.96994 | 169.02343 | 23159 ft | 411 kts | 76° |
| 2026-04-24 19:06 | -17.96467 | 169.05312 | 23601 ft | 415 kts | 76° |
| 2026-04-24 19:07 | -17.95936 | 169.08298 | 23971 ft | 418 kts | 76° |
| 2026-04-24 19:07 | -17.95401 | 169.11306 | 24349 ft | 421 kts | 75° |
| 2026-04-24 19:07 | -17.95039 | 169.13351 | 24603 ft | 422 kts | 76° |
| 2026-04-24 19:07 | -17.94325 | 169.17384 | 25122 ft | 426 kts | 75° |
| 2026-04-24 19:08 | -17.93958 | 169.19450 | 25375 ft | 427 kts | 75° |
| 2026-04-24 19:08 | -17.93418 | 169.22485 | 25742 ft | 430 kts | 75° |
| 2026-04-24 19:08 | -17.92868 | 169.25574 | 26109 ft | 432 kts | 75° |
| 2026-04-24 19:08 | -17.92314 | 169.28683 | 26475 ft | 435 kts | 75° |
| 2026-04-24 19:09 | -17.91751 | 169.31815 | 26829 ft | 437 kts | 75° |
| 2026-04-24 19:09 | -17.91186 | 169.34955 | 27182 ft | 440 kts | 75° |
| 2026-04-24 19:09 | -17.90622 | 169.38118 | 27533 ft | 442 kts | 75° |
| 2026-04-24 19:09 | -17.90057 | 169.41299 | 27881 ft | 444 kts | 75° |
| 2026-04-24 19:10 | -17.89486 | 169.44499 | 28228 ft | 447 kts | 75° |
| 2026-04-24 19:10 | -17.88911 | 169.47713 | 28565 ft | 449 kts | 75° |
| 2026-04-24 19:10 | -17.88329 | 169.50948 | 28895 ft | 452 kts | 75° |
| 2026-04-24 19:10 | -17.87743 | 169.54195 | 29227 ft | 454 kts | 75° |
| 2026-04-24 19:11 | -17.87152 | 169.57463 | 29554 ft | 457 kts | 75° |
| 2026-04-24 19:11 | -17.86558 | 169.60745 | 29881 ft | 459 kts | 75° |
| 2026-04-24 19:11 | -17.85961 | 169.64042 | 30177 ft | 461 kts | 75° |
| 2026-04-24 19:11 | -17.85363 | 169.67361 | 30458 ft | 463 kts | 75° |
| 2026-04-24 19:12 | -17.84765 | 169.70692 | 30753 ft | 465 kts | 75° |
| 2026-04-24 19:12 | -17.84162 | 169.74031 | 31051 ft | 467 kts | 75° |
| 2026-04-24 19:12 | -17.83558 | 169.77382 | 31348 ft | 468 kts | 75° |
| 2026-04-24 19:12 | -17.82953 | 169.80743 | 31674 ft | 469 kts | 75° |
| 2026-04-24 19:13 | -17.82552 | 169.82966 | 31966 ft | 467 kts | 75° |
| 2026-04-24 19:13 | -17.81743 | 169.87439 | 32535 ft | 465 kts | 75° |
| 2026-04-24 19:13 | -17.81140 | 169.90761 | 32959 ft | 463 kts | 75° |
| 2026-04-24 19:13 | -17.80537 | 169.94077 | 33387 ft | 462 kts | 75° |
| 2026-04-24 19:14 | -17.79934 | 169.97384 | 33802 ft | 460 kts | 75° |
| 2026-04-24 19:14 | -17.79335 | 170.00678 | 34159 ft | 459 kts | 75° |
| 2026-04-24 19:14 | -17.78738 | 170.03961 | 34492 ft | 458 kts | 75° |
| 2026-04-24 19:14 | -17.78139 | 170.07241 | 34799 ft | 457 kts | 75° |
| 2026-04-24 19:15 | -17.77538 | 170.10518 | 35112 ft | 457 kts | 75° |
| 2026-04-24 19:15 | -17.76936 | 170.13791 | 35409 ft | 456 kts | 75° |
| 2026-04-24 19:15 | -17.76342 | 170.17014 | 35690 ft | 456 kts | 75° |
| 2026-04-24 19:15 | -17.75743 | 170.20268 | 36025 ft | 454 kts | 75° |
| 2026-04-24 19:16 | -17.74554 | 170.26758 | 36627 ft | 452 kts | 75° |
| 2026-04-24 19:16 | -17.73961 | 170.29995 | 36881 ft | 452 kts | 75° |
| 2026-04-24 19:16 | -17.73368 | 170.33232 | 36960 ft | 452 kts | 75° |
| 2026-04-24 19:17 | -17.72179 | 170.39700 | 36971 ft | 451 kts | 74° |
| 2026-04-24 19:17 | -17.70983 | 170.46160 | 36974 ft | 451 kts | 74° |
| 2026-04-24 19:18 | -17.70292 | 170.52721 | 36967 ft | 458 kts | 87° |
| 2026-04-24 19:18 | -17.70372 | 170.59370 | 36968 ft | 455 kts | 87° |
| 2026-04-24 19:19 | -17.70425 | 170.65992 | 36961 ft | 454 kts | 86° |
| 2026-04-24 19:19 | -17.70485 | 170.72607 | 36945 ft | 454 kts | 87° |
| 2026-04-24 19:20 | -17.70556 | 170.79257 | 36932 ft | 457 kts | 87° |
| 2026-04-24 19:20 | -17.70619 | 170.85945 | 36938 ft | 460 kts | 87° |
| 2026-04-24 19:21 | -17.70673 | 170.92662 | 36931 ft | 461 kts | 86° |
| 2026-04-24 19:21 | -17.70718 | 170.99393 | 36942 ft | 461 kts | 86° |
| 2026-04-24 19:22 | -17.70764 | 171.06073 | 36948 ft | 461 kts | 86° |
| 2026-04-24 19:22 | -17.70823 | 171.12801 | 36953 ft | 461 kts | 86° |
| 2026-04-24 19:23 | -17.70873 | 171.19522 | 36958 ft | 461 kts | 86° |
| 2026-04-24 19:23 | -17.70912 | 171.26251 | 36960 ft | 461 kts | 86° |
| 2026-04-24 19:24 | -17.70956 | 171.32972 | 36966 ft | 461 kts | 87° |
| 2026-04-24 19:24 | -17.71000 | 171.39689 | 36968 ft | 460 kts | 86° |
| 2026-04-24 19:25 | -17.71029 | 171.46395 | 36972 ft | 460 kts | 86° |
| 2026-04-24 19:25 | -17.71058 | 171.53103 | 36972 ft | 460 kts | 86° |
| 2026-04-24 19:26 | -17.71091 | 171.59812 | 36972 ft | 460 kts | 87° |
| 2026-04-24 19:26 | -17.71130 | 171.66511 | 36970 ft | 460 kts | 87° |
| 2026-04-24 19:27 | -17.71163 | 171.73224 | 36957 ft | 461 kts | 87° |
| 2026-04-24 19:27 | -17.71189 | 171.79953 | 36956 ft | 461 kts | 87° |
| 2026-04-24 19:28 | -17.71208 | 171.86685 | 36957 ft | 462 kts | 87° |
| 2026-04-24 19:28 | -17.71232 | 171.93378 | 36961 ft | 462 kts | 87° |
| 2026-04-24 19:29 | -17.71254 | 172.03493 | 36958 ft | 462 kts | 87° |
| 2026-04-24 19:30 | -17.71266 | 172.10236 | 36961 ft | 462 kts | 87° |
| 2026-04-24 19:30 | -17.71285 | 172.16978 | 36966 ft | 462 kts | 87° |
| 2026-04-24 19:31 | -17.71305 | 172.23727 | 36972 ft | 462 kts | 87° |
| 2026-04-24 19:31 | -17.71311 | 172.30465 | 36976 ft | 462 kts | 86° |
| 2026-04-24 19:32 | -17.71316 | 172.37211 | 36975 ft | 462 kts | 86° |
| 2026-04-24 19:32 | -17.71325 | 172.43953 | 36981 ft | 462 kts | 87° |
| 2026-04-24 19:33 | -17.71330 | 172.50676 | 36992 ft | 460 kts | 87° |
| 2026-04-24 19:33 | -17.71326 | 172.57384 | 36999 ft | 459 kts | 87° |
| 2026-04-24 19:34 | -17.71319 | 172.64080 | 36991 ft | 459 kts | 87° |
| 2026-04-24 19:34 | -17.71317 | 172.70772 | 36992 ft | 458 kts | 87° |
| 2026-04-24 19:35 | -17.71302 | 172.77456 | 36996 ft | 458 kts | 87° |
| 2026-04-24 19:35 | -17.71294 | 172.84138 | 36993 ft | 458 kts | 87° |
| 2026-04-24 19:36 | -17.71290 | 172.90777 | 36986 ft | 458 kts | 87° |
| 2026-04-24 19:36 | -17.71280 | 172.97453 | 36986 ft | 458 kts | 87° |
| 2026-04-24 19:37 | -17.71262 | 173.04135 | 36988 ft | 458 kts | 86° |
| 2026-04-24 19:37 | -17.71243 | 173.10814 | 36982 ft | 458 kts | 87° |
| 2026-04-24 19:38 | -17.71229 | 173.17494 | 36981 ft | 458 kts | 87° |
| 2026-04-24 19:38 | -17.71199 | 173.24164 | 36980 ft | 458 kts | 87° |
| 2026-04-24 19:39 | -17.71166 | 173.30838 | 36990 ft | 458 kts | 87° |
| 2026-04-24 19:39 | -17.71142 | 173.37511 | 36988 ft | 458 kts | 87° |
| 2026-04-24 19:40 | -17.71115 | 173.44183 | 36989 ft | 458 kts | 87° |
| 2026-04-24 19:40 | -17.71081 | 173.50860 | 36990 ft | 458 kts | 87° |
| 2026-04-24 19:41 | -17.71046 | 173.57538 | 36986 ft | 458 kts | 87° |
| 2026-04-24 19:41 | -17.71012 | 173.64228 | 36983 ft | 459 kts | 87° |
| 2026-04-24 19:42 | -17.70979 | 173.70919 | 36991 ft | 459 kts | 87° |
| 2026-04-24 19:42 | -17.70939 | 173.77573 | 36995 ft | 459 kts | 87° |
| 2026-04-24 19:43 | -17.70893 | 173.84316 | 36994 ft | 459 kts | 87° |
| 2026-04-24 19:43 | -17.70846 | 173.90968 | 36993 ft | 459 kts | 87° |
| 2026-04-24 19:44 | -17.70802 | 173.97665 | 36980 ft | 460 kts | 87° |
| 2026-04-24 19:44 | -17.70755 | 174.04373 | 36982 ft | 460 kts | 87° |
| 2026-04-24 19:45 | -17.70709 | 174.11095 | 36980 ft | 461 kts | 87° |
| 2026-04-24 19:45 | -17.70656 | 174.17810 | 36985 ft | 461 kts | 87° |
| 2026-04-24 19:46 | -17.70590 | 174.24533 | 36986 ft | 461 kts | 87° |
| 2026-04-24 19:46 | -17.70523 | 174.31247 | 36975 ft | 461 kts | 87° |
| 2026-04-24 19:47 | -17.70467 | 174.37976 | 36971 ft | 461 kts | 87° |
| 2026-04-24 19:47 | -17.70407 | 174.44708 | 36975 ft | 462 kts | 87° |
| 2026-04-24 19:48 | -17.70342 | 174.51444 | 36973 ft | 462 kts | 87° |
| 2026-04-24 19:48 | -17.70235 | 174.61549 | 36980 ft | 462 kts | 87° |
| 2026-04-24 19:49 | -17.70083 | 174.75005 | 36979 ft | 464 kts | 87° |
| 2026-04-24 19:50 | -17.69930 | 174.88536 | 36977 ft | 464 kts | 87° |
| 2026-04-24 19:51 | -17.69796 | 174.98693 | 36986 ft | 464 kts | 87° |
| 2026-04-24 19:52 | -17.69664 | 175.08862 | 36984 ft | 465 kts | 87° |
| 2026-04-24 19:52 | -17.69567 | 175.15646 | 36989 ft | 466 kts | 87° |
| 2026-04-24 19:53 | -17.69471 | 175.22434 | 36996 ft | 466 kts | 87° |
| 2026-04-24 19:53 | -17.69376 | 175.29238 | 36364 ft | 466 kts | 87° |
| 2026-04-24 19:54 | -17.69333 | 175.32639 | 35924 ft | 467 kts | 87° |
| 2026-04-24 19:54 | -17.69284 | 175.36035 | 35495 ft | 466 kts | 87° |
| 2026-04-24 19:54 | -17.69231 | 175.39425 | 35071 ft | 463 kts | 87° |
| 2026-04-24 19:54 | -17.69176 | 175.42794 | 34654 ft | 461 kts | 87° |
| 2026-04-24 19:55 | -17.69158 | 175.43878 | 34525 ft | 460 kts | 87° |
| 2026-04-24 19:55 | -17.69069 | 175.49457 | 33773 ft | 453 kts | 87° |
| 2026-04-24 19:55 | -17.69017 | 175.52745 | 33270 ft | 450 kts | 87° |
| 2026-04-24 19:55 | -17.68965 | 175.56018 | 32769 ft | 447 kts | 87° |
| 2026-04-24 19:56 | -17.68913 | 175.59260 | 32278 ft | 444 kts | 87° |
| 2026-04-24 19:56 | -17.68863 | 175.62488 | 31795 ft | 441 kts | 86° |
| 2026-04-24 19:56 | -17.68812 | 175.65693 | 31322 ft | 438 kts | 86° |
| 2026-04-24 19:56 | -17.68763 | 175.68830 | 30863 ft | 435 kts | 86° |
| 2026-04-24 19:57 | -17.68713 | 175.71997 | 30411 ft | 433 kts | 86° |
| 2026-04-24 19:57 | -17.68665 | 175.75144 | 29943 ft | 430 kts | 86° |
| 2026-04-24 19:57 | -17.68619 | 175.78266 | 29412 ft | 427 kts | 86° |
| 2026-04-24 19:57 | -17.68572 | 175.81368 | 28896 ft | 424 kts | 86° |
| 2026-04-24 19:58 | -17.68524 | 175.84447 | 28381 ft | 421 kts | 86° |
| 2026-04-24 19:58 | -17.68478 | 175.87502 | 27878 ft | 418 kts | 86° |
| 2026-04-24 19:58 | -17.68449 | 175.89511 | 27550 ft | 416 kts | 86° |
| 2026-04-24 19:58 | -17.68403 | 175.92531 | 27061 ft | 413 kts | 86° |
| 2026-04-24 19:59 | -17.68350 | 175.95531 | 26580 ft | 410 kts | 86° |
| 2026-04-24 19:59 | -17.68296 | 175.98499 | 26109 ft | 406 kts | 86° |
| 2026-04-24 19:59 | -17.68245 | 176.01452 | 25644 ft | 404 kts | 86° |
| 2026-04-24 19:59 | -17.68196 | 176.04388 | 25187 ft | 401 kts | 85° |
| 2026-04-24 20:00 | -17.68147 | 176.07296 | 24737 ft | 398 kts | 85° |
| 2026-04-24 20:00 | -17.68099 | 176.10189 | 24294 ft | 395 kts | 85° |
| 2026-04-24 20:00 | -17.68051 | 176.13060 | 23858 ft | 393 kts | 85° |
| 2026-04-24 20:00 | -17.68002 | 176.15917 | 23395 ft | 390 kts | 85° |
| 2026-04-24 20:01 | -17.67953 | 176.18753 | 22885 ft | 388 kts | 85° |
| 2026-04-24 20:01 | -17.67904 | 176.21575 | 22370 ft | 386 kts | 85° |
| 2026-04-24 20:01 | -17.67857 | 176.24382 | 21867 ft | 384 kts | 85° |
| 2026-04-24 20:01 | -17.67810 | 176.27177 | 21378 ft | 383 kts | 85° |
| 2026-04-24 20:02 | -17.67759 | 176.29962 | 20894 ft | 381 kts | 85° |
| 2026-04-24 20:02 | -17.67707 | 176.32731 | 20419 ft | 379 kts | 85° |
| 2026-04-24 20:02 | -17.67654 | 176.35495 | 19950 ft | 378 kts | 85° |
| 2026-04-24 20:02 | -17.67602 | 176.38241 | 19497 ft | 376 kts | 85° |
| 2026-04-24 20:03 | -17.67551 | 176.40975 | 19035 ft | 375 kts | 85° |
| 2026-04-24 20:03 | -17.67501 | 176.43701 | 18588 ft | 373 kts | 86° |
| 2026-04-24 20:03 | -17.67451 | 176.46417 | 18125 ft | 372 kts | 86° |
| 2026-04-24 20:03 | -17.67400 | 176.49123 | 17615 ft | 370 kts | 86° |
| 2026-04-24 20:04 | -17.67347 | 176.51784 | 17115 ft | 369 kts | 86° |
| 2026-04-24 20:04 | -17.67294 | 176.54466 | 16622 ft | 368 kts | 86° |
| 2026-04-24 20:04 | -17.67240 | 176.57141 | 16134 ft | 366 kts | 86° |
| 2026-04-24 20:04 | -17.67186 | 176.59804 | 15689 ft | 364 kts | 86° |
| 2026-04-24 20:05 | -17.67133 | 176.62444 | 15270 ft | 361 kts | 86° |
| 2026-04-24 20:05 | -17.67082 | 176.65057 | 14898 ft | 356 kts | 86° |
| 2026-04-24 20:05 | -17.67033 | 176.67639 | 14552 ft | 352 kts | 86° |
| 2026-04-24 20:05 | -17.66985 | 176.70183 | 14274 ft | 345 kts | 86° |
| 2026-04-24 20:06 | -17.66940 | 176.72672 | 14044 ft | 338 kts | 86° |
| 2026-04-24 20:06 | -17.67158 | 176.75106 | 13816 ft | 334 kts | 100° |
| 2026-04-24 20:06 | -17.67913 | 176.77395 | 13564 ft | 331 kts | 112° |
| 2026-04-24 20:06 | -17.68874 | 176.79564 | 13304 ft | 325 kts | 112° |
| 2026-04-24 20:07 | -17.69501 | 176.80980 | 13142 ft | 322 kts | 112° |
| 2026-04-24 20:07 | -17.70743 | 176.83799 | 12800 ft | 315 kts | 112° |
| 2026-04-24 20:07 | -17.71652 | 176.85862 | 12545 ft | 310 kts | 112° |
| 2026-04-24 20:07 | -17.72549 | 176.87895 | 12331 ft | 305 kts | 111° |
| 2026-04-24 20:08 | -17.73431 | 176.89894 | 12108 ft | 299 kts | 112° |
| 2026-04-24 20:08 | -17.74297 | 176.91863 | 11889 ft | 294 kts | 111° |
| 2026-04-24 20:08 | -17.75146 | 176.93795 | 11671 ft | 290 kts | 111° |
| 2026-04-24 20:08 | -17.75984 | 176.95701 | 11451 ft | 285 kts | 112° |
| 2026-04-24 20:09 | -17.76806 | 176.97573 | 11239 ft | 281 kts | 112° |
| 2026-04-24 20:09 | -17.77606 | 176.99393 | 11027 ft | 276 kts | 112° |
| 2026-04-24 20:09 | -17.78406 | 177.01211 | 10817 ft | 273 kts | 112° |
| 2026-04-24 20:09 | -17.79196 | 177.03009 | 10607 ft | 270 kts | 112° |
| 2026-04-24 20:10 | -17.79983 | 177.04798 | 10402 ft | 270 kts | 112° |
| 2026-04-24 20:10 | -17.80765 | 177.06579 | 10190 ft | 268 kts | 112° |
| 2026-04-24 20:10 | -17.81542 | 177.08347 | 9955 ft | 265 kts | 113° |
| 2026-04-24 20:10 | -17.82314 | 177.10107 | 9584 ft | 266 kts | 111° |
| 2026-04-24 20:11 | -17.83081 | 177.11852 | 9199 ft | 260 kts | 112° |
| 2026-04-24 20:11 | -17.83831 | 177.13558 | 8768 ft | 255 kts | 112° |
| 2026-04-24 20:11 | -17.84564 | 177.15226 | 8395 ft | 249 kts | 113° |
| 2026-04-24 20:11 | -17.85276 | 177.16851 | 8081 ft | 241 kts | 113° |
| 2026-04-24 20:12 | -17.85964 | 177.18425 | 7768 ft | 234 kts | 112° |
| 2026-04-24 20:12 | -17.86636 | 177.19961 | 7433 ft | 230 kts | 113° |
| 2026-04-24 20:12 | -17.87299 | 177.21479 | 7053 ft | 228 kts | 113° |
| 2026-04-24 20:12 | -17.87961 | 177.22988 | 6641 ft | 227 kts | 114° |
| 2026-04-24 20:13 | -17.88620 | 177.24489 | 6209 ft | 225 kts | 113° |
| 2026-04-24 20:13 | -17.89273 | 177.25979 | 5761 ft | 225 kts | 113° |
| 2026-04-24 20:13 | -17.89924 | 177.27461 | 5335 ft | 223 kts | 112° |
| 2026-04-24 20:13 | -17.90572 | 177.28940 | 4897 ft | 223 kts | 112° |
| 2026-04-24 20:14 | -17.91156 | 177.30430 | 4512 ft | 219 kts | 101° |
| 2026-04-24 20:14 | -17.91058 | 177.32005 | 4158 ft | 221 kts | 69° |
| 2026-04-24 20:14 | -17.90097 | 177.33270 | 3787 ft | 228 kts | 39° |
| 2026-04-24 20:14 | -17.88806 | 177.34237 | 3477 ft | 228 kts | 39° |
| 2026-04-24 20:15 | -17.87522 | 177.35188 | 3166 ft | 222 kts | 39° |
| 2026-04-24 20:15 | -17.86280 | 177.36107 | 2840 ft | 215 kts | 40° |
| 2026-04-24 20:15 | -17.85077 | 177.37001 | 2506 ft | 209 kts | 40° |
| 2026-04-24 20:15 | -17.83903 | 177.37878 | 2166 ft | 205 kts | 39° |
| 2026-04-24 20:16 | -17.82753 | 177.38739 | 1874 ft | 200 kts | 39° |
| 2026-04-24 20:16 | -17.81661 | 177.39557 | 1841 ft | 185 kts | 39° |
| 2026-04-24 20:16 | -17.80631 | 177.40328 | 1754 ft | 173 kts | 39° |
| 2026-04-24 20:16 | -17.79664 | 177.41054 | 1951 ft | 172 kts | 40° |
| 2026-04-24 20:17 | -17.78685 | 177.41783 | 2140 ft | 172 kts | 37° |
| 2026-04-24 20:17 | -17.76359 | 177.41469 | 2536 ft | 196 kts | 320° |
| 2026-04-24 20:17 | -17.75453 | 177.40380 | 2727 ft | 199 kts | 311° |
| 2026-04-24 20:18 | -17.74887 | 177.39600 | 2863 ft | 199 kts | 310° |
| 2026-04-24 20:18 | -17.74208 | 177.37834 | 3020 ft | 203 kts | 267° |
| 2026-04-24 20:18 | -17.74656 | 177.36474 | 3036 ft | 197 kts | 227° |
| 2026-04-24 20:18 | -17.75586 | 177.35438 | 3042 ft | 194 kts | 218° |
| 2026-04-24 20:19 | -17.76590 | 177.34487 | 3031 ft | 194 kts | 216° |
| 2026-04-24 20:19 | -17.77598 | 177.33551 | 3028 ft | 194 kts | 216° |
| 2026-04-24 20:19 | -17.78604 | 177.32612 | 3026 ft | 193 kts | 217° |
| 2026-04-24 20:19 | -17.79620 | 177.31685 | 3027 ft | 193 kts | 216° |
| 2026-04-24 20:20 | -17.80638 | 177.30766 | 3029 ft | 193 kts | 216° |
| 2026-04-24 20:20 | -17.81653 | 177.29846 | 3025 ft | 193 kts | 216° |
| 2026-04-24 20:20 | -17.82670 | 177.28933 | 3028 ft | 191 kts | 216° |
| 2026-04-24 20:20 | -17.83686 | 177.28021 | 3026 ft | 193 kts | 216° |
| 2026-04-24 20:21 | -17.84703 | 177.27105 | 3022 ft | 192 kts | 216° |
| 2026-04-24 20:21 | -17.85721 | 177.26199 | 3017 ft | 193 kts | 216° |
| 2026-04-24 20:21 | -17.86776 | 177.25341 | 3019 ft | 189 kts | 200° |
| 2026-04-24 20:21 | -17.88010 | 177.25185 | 3018 ft | 176 kts | 159° |
| 2026-04-24 20:22 | -17.88990 | 177.25860 | 3019 ft | 167 kts | 125° |
| 2026-04-24 20:22 | -17.89311 | 177.26974 | 3022 ft | 163 kts | 82° |
| 2026-04-24 20:22 | -17.88766 | 177.28013 | 3023 ft | 169 kts | 46° |
| 2026-04-24 20:22 | -17.87930 | 177.28863 | 3029 ft | 169 kts | 53° |
| 2026-04-24 20:23 | -17.87198 | 177.29844 | 3025 ft | 168 kts | 57° |
| 2026-04-24 20:23 | -17.86546 | 177.30862 | 3023 ft | 168 kts | 65° |
| 2026-04-24 20:23 | -17.86043 | 177.31967 | 2852 ft | 164 kts | 68° |
| 2026-04-24 20:23 | -17.85594 | 177.33028 | 2678 ft | 158 kts | 69° |
| 2026-04-24 20:24 | -17.85296 | 177.33731 | 2558 ft | 152 kts | 69° |
| 2026-04-24 20:24 | -17.84707 | 177.34997 | 2278 ft | 141 kts | 64° |
| 2026-04-24 20:24 | -17.84229 | 177.35870 | 2050 ft | 136 kts | 63° |
| 2026-04-24 20:24 | -17.83753 | 177.36733 | 1812 ft | 137 kts | 62° |
| 2026-04-24 20:25 | -17.83114 | 177.37476 | 1574 ft | 138 kts | 44° |
| 2026-04-24 20:25 | -17.82365 | 177.38108 | 1371 ft | 138 kts | 41° |
| 2026-04-24 20:25 | -17.81602 | 177.38723 | 1208 ft | 139 kts | 41° |
| 2026-04-24 20:25 | -17.80903 | 177.39421 | 1078 ft | 138 kts | 49° |
| 2026-04-24 20:26 | -17.80284 | 177.40190 | 949 ft | 140 kts | 52° |
| 2026-04-24 20:26 | -17.79632 | 177.40968 | 714 ft | 143 kts | 44° |
| 2026-04-24 20:26 | -17.78851 | 177.41624 | 523 ft | 144 kts | 38° |
| 2026-04-24 20:26 | -17.78046 | 177.42283 | 315 ft | 149 kts | 36° |
| 2026-04-24 20:27 | -17.77231 | 177.42947 | 95 ft | 148 kts | 37° |
| 2026-04-24 20:27 | -17.76455 | 177.43570 | 46 ft | 124 kts | 38° |
| 2026-04-24 20:27 | -17.75905 | 177.44009 | 50 ft | 80 kts | 37° |
| 2026-04-24 20:27 | -17.75507 | 177.44316 | 49 ft | 62 kts | 39° |
| 2026-04-24 20:28 | -17.75200 | 177.44575 | 50 ft | 52 kts | 38° |
| 2026-04-24 20:28 | -17.75024 | 177.44728 | 52 ft | 17 kts | 56° |
| 2026-04-24 20:28 | -17.75022 | 177.44838 | 52 ft | 15 kts | 104° |
| 2026-04-24 20:28 | -17.75037 | 177.44897 | 52 ft | 6 kts | 105° |
| 2026-04-24 20:29 | -17.75044 | 177.44924 | 51 ft | 6 kts | 105° |
| 2026-04-24 20:29 | -17.75071 | 177.44968 | 55 ft | 5 kts | 144° |
| 2026-04-24 20:29 | -17.75120 | 177.44965 | 54 ft | 9 kts | 200° |
| 2026-04-24 20:29 | -17.75177 | 177.44962 | 54 ft | 7 kts | 142° |
| 2026-04-24 20:30 | -17.75195 | 177.45009 | 54 ft | 7 kts | 104° |
| 2026-04-24 20:30 | -17.75201 | 177.45031 | 54 ft | 0 kts | 106° |